Alapaha, Georgia
Current Conditions -  °F | °C
As of 10:50 AM on Thursday 30 Oct 2014 (Local Time) from KTMA Reporting Station
Clear Clear  
Wind Chill: 16°   Ceiling: Unl
Heat Index: 16°   Visibility: 10mi
Dew Point:   Wind: 6mph
Humidity: 63%   Direction: 360°N
Pressure: 30.03"   Gusts: NA
Location:  31.39°N, 83.22°W
Report Text: KTMA 301450Z AUTO 36005KT 10SM CLR 16/09 A3003 RMK AO2 T01580087
Loading
Personal Weather Stations






























Interactive Weather Map
Tropical Storm Tracking
New forecast layout! Learn more

10-Day Weather Forecast

Advertisements
Track Severe Weather on mobile